sensor_id;sensor_type;location;lat;lon;timestamp;pressure;altitude;pressure_sealevel;temperature;humidity
57250;BME280;43102;52.014;-0.680;2023-03-23T00:00:00;98586;;;10.42;78.38
57250;BME280;43102;52.014;-0.680;2023-03-23T00:01:00;98586;;;10.42;78.38
57250;BME280;43102;52.014;-0.680;2023-03-23T00:02:00;98586;;;10.42;78.38
57250;BME280;43102;52.014;-0.680;2023-03-23T00:03:00;98576;;;10.41;78.17
57250;BME280;43102;52.014;-0.680;2023-03-23T00:04:00;98576;;;10.41;78.17
57250;BME280;43102;52.014;-0.680;2023-03-23T00:05:00;98576;;;10.41;78.17
57250;BME280;43102;52.014;-0.680;2023-03-23T00:06:00;98576;;;10.41;78.17
57250;BME280;43102;52.014;-0.680;2023-03-23T00:07:00;98576;;;10.41;78.17
57250;BME280;43102;52.014;-0.680;2023-03-23T00:08:00;98582;;;10.39;77.97
57250;BME280;43102;52.014;-0.680;2023-03-23T00:09:00;98582;;;10.39;77.97
57250;BME280;43102;52.014;-0.680;2023-03-23T00:10:00;98582;;;10.39;77.97
57250;BME280;43102;52.014;-0.680;2023-03-23T00:11:00;98582;;;10.39;77.97
57250;BME280;43102;52.014;-0.680;2023-03-23T00:12:00;98582;;;10.39;77.97
57250;BME280;43102;52.014;-0.680;2023-03-23T00:13:00;98594;;;10.28;77.86
57250;BME280;43102;52.014;-0.680;2023-03-23T00:14:00;98594;;;10.28;77.86
57250;BME280;43102;52.014;-0.680;2023-03-23T00:15:00;98594;;;10.28;77.86
57250;BME280;43102;52.014;-0.680;2023-03-23T00:16:00;98594;;;10.28;77.86
57250;BME280;43102;52.014;-0.680;2023-03-23T00:17:00;98594;;;10.28;77.86
57250;BME280;43102;52.014;-0.680;2023-03-23T00:18:00;98590;;;10.19;77.73
57250;BME280;43102;52.014;-0.680;2023-03-23T00:19:01;98590;;;10.19;77.73
57250;BME280;43102;52.014;-0.680;2023-03-23T00:20:01;98590;;;10.19;77.73
57250;BME280;43102;52.014;-0.680;2023-03-23T00:21:00;98590;;;10.19;77.73
57250;BME280;43102;52.014;-0.680;2023-03-23T00:22:00;98590;;;10.19;77.73
57250;BME280;43102;52.014;-0.680;2023-03-23T00:23:00;98597;;;10.22;77.33
57250;BME280;43102;52.014;-0.680;2023-03-23T00:24:05;98597;;;10.22;77.33
57250;BME280;43102;52.014;-0.680;2023-03-23T00:25:00;98597;;;10.22;77.33
57250;BME280;43102;52.014;-0.680;2023-03-23T00:26:00;98597;;;10.22;77.33
57250;BME280;43102;52.014;-0.680;2023-03-23T00:27:00;98597;;;10.22;77.33
57250;BME280;43102;52.014;-0.680;2023-03-23T00:28:00;98600;;;10.12;77.48
57250;BME280;43102;52.014;-0.680;2023-03-23T00:29:01;98600;;;10.12;77.48
57250;BME280;43102;52.014;-0.680;2023-03-23T00:30:00;98600;;;10.12;77.48
57250;BME280;43102;52.014;-0.680;2023-03-23T00:31:01;98600;;;10.12;77.48
57250;BME280;43102;52.014;-0.680;2023-03-23T00:32:00;98600;;;10.12;77.48
57250;BME280;43102;52.014;-0.680;2023-03-23T00:33:00;98609;;;10.09;77.18
57250;BME280;43102;52.014;-0.680;2023-03-23T00:34:01;98609;;;10.09;77.18
57250;BME280;43102;52.014;-0.680;2023-03-23T00:35:00;98609;;;10.09;77.18
57250;BME280;43102;52.014;-0.680;2023-03-23T00:36:00;98609;;;10.09;77.18
57250;BME280;43102;52.014;-0.680;2023-03-23T00:37:00;98609;;;10.09;77.18
57250;BME280;43102;52.014;-0.680;2023-03-23T00:38:00;98612;;;9.97;77.30
57250;BME280;43102;52.014;-0.680;2023-03-23T00:39:01;98612;;;9.97;77.30
57250;BME280;43102;52.014;-0.680;2023-03-23T00:40:00;98612;;;9.97;77.30
57250;BME280;43102;52.014;-0.680;2023-03-23T00:41:00;98612;;;9.97;77.30
57250;BME280;43102;52.014;-0.680;2023-03-23T00:42:00;98612;;;9.97;77.30
57250;BME280;43102;52.014;-0.680;2023-03-23T00:43:00;98608;;;9.89;77.23
57250;BME280;43102;52.014;-0.680;2023-03-23T00:44:00;98608;;;9.89;77.23
57250;BME280;43102;52.014;-0.680;2023-03-23T00:45:00;98608;;;9.89;77.23
57250;BME280;43102;52.014;-0.680;2023-03-23T00:46:00;98608;;;9.89;77.23
57250;BME280;43102;52.014;-0.680;2023-03-23T00:47:00;98608;;;9.89;77.23
57250;BME280;43102;52.014;-0.680;2023-03-23T00:48:00;98621;;;9.87;77.07
57250;BME280;43102;52.014;-0.680;2023-03-23T00:49:00;98621;;;9.87;77.07
57250;BME280;43102;52.014;-0.680;2023-03-23T00:50:00;98621;;;9.87;77.07
57250;BME280;43102;52.014;-0.680;2023-03-23T00:51:00;98621;;;9.87;77.07
57250;BME280;43102;52.014;-0.680;2023-03-23T00:52:00;98621;;;9.87;77.07
57250;BME280;43102;52.014;-0.680;2023-03-23T00:53:00;98634;;;9.83;77.07
57250;BME280;43102;52.014;-0.680;2023-03-23T00:54:00;98634;;;9.83;77.07
57250;BME280;43102;52.014;-0.680;2023-03-23T00:55:00;98634;;;9.83;77.07
57250;BME280;43102;52.014;-0.680;2023-03-23T00:56:00;98634;;;9.83;77.07
57250;BME280;43102;52.014;-0.680;2023-03-23T00:57:00;98634;;;9.83;77.07
57250;BME280;43102;52.014;-0.680;2023-03-23T00:58:00;98633;;;9.83;77.02
57250;BME280;43102;52.014;-0.680;2023-03-23T00:59:00;98633;;;9.83;77.02
57250;BME280;43102;52.014;-0.680;2023-03-23T01:00:00;98633;;;9.83;77.02
57250;BME280;43102;52.014;-0.680;2023-03-23T01:01:00;98633;;;9.83;77.02
57250;BME280;43102;52.014;-0.680;2023-03-23T01:02:00;98633;;;9.83;77.02
57250;BME280;43102;52.014;-0.680;2023-03-23T01:03:00;98651;;;9.86;76.86
57250;BME280;43102;52.014;-0.680;2023-03-23T01:04:00;98651;;;9.86;76.86
57250;BME280;43102;52.014;-0.680;2023-03-23T01:05:00;98651;;;9.86;76.86
57250;BME280;43102;52.014;-0.680;2023-03-23T01:06:04;98651;;;9.86;76.86
57250;BME280;43102;52.014;-0.680;2023-03-23T01:07:00;98651;;;9.86;76.86
57250;BME280;43102;52.014;-0.680;2023-03-23T01:08:00;98654;;;9.80;76.89
57250;BME280;43102;52.014;-0.680;2023-03-23T01:09:00;98654;;;9.80;76.89
57250;BME280;43102;52.014;-0.680;2023-03-23T01:10:00;98654;;;9.80;76.89
57250;BME280;43102;52.014;-0.680;2023-03-23T01:11:04;98654;;;9.80;76.89
57250;BME280;43102;52.014;-0.680;2023-03-23T01:12:00;98654;;;9.80;76.89
57250;BME280;43102;52.014;-0.680;2023-03-23T01:13:00;98661;;;9.76;76.84
57250;BME280;43102;52.014;-0.680;2023-03-23T01:14:00;98661;;;9.76;76.84
57250;BME280;43102;52.014;-0.680;2023-03-23T01:15:00;98661;;;9.76;76.84
57250;BME280;43102;52.014;-0.680;2023-03-23T01:16:00;98661;;;9.76;76.84
57250;BME280;43102;52.014;-0.680;2023-03-23T01:17:00;98661;;;9.76;76.84
57250;BME280;43102;52.014;-0.680;2023-03-23T01:18:00;98667;;;9.67;76.80
57250;BME280;43102;52.014;-0.680;2023-03-23T01:19:00;98667;;;9.67;76.80
57250;BME280;43102;52.014;-0.680;2023-03-23T01:20:00;98667;;;9.67;76.80
57250;BME280;43102;52.014;-0.680;2023-03-23T01:21:04;98667;;;9.67;76.80
57250;BME280;43102;52.014;-0.680;2023-03-23T01:22:00;98667;;;9.67;76.80
57250;BME280;43102;52.014;-0.680;2023-03-23T01:23:00;98673;;;9.60;77.31
57250;BME280;43102;52.014;-0.680;2023-03-23T01:24:00;98673;;;9.60;77.31
57250;BME280;43102;52.014;-0.680;2023-03-23T01:25:00;98673;;;9.60;77.31
57250;BME280;43102;52.014;-0.680;2023-03-23T01:26:09;98673;;;9.60;77.31
57250;BME280;43102;52.014;-0.680;2023-03-23T01:27:00;98673;;;9.60;77.31
57250;BME280;43102;52.014;-0.680;2023-03-23T01:28:00;98682;;;9.61;77.04
57250;BME280;43102;52.014;-0.680;2023-03-23T01:29:00;98682;;;9.61;77.04
57250;BME280;43102;52.014;-0.680;2023-03-23T01:30:00;98682;;;9.61;77.04
57250;BME280;43102;52.014;-0.680;2023-03-23T01:31:01;98682;;;9.61;77.04
57250;BME280;43102;52.014;-0.680;2023-03-23T01:32:00;98682;;;9.61;77.04
57250;BME280;43102;52.014;-0.680;2023-03-23T01:33:00;98685;;;9.60;76.91
57250;BME280;43102;52.014;-0.680;2023-03-23T01:34:00;98685;;;9.60;76.91
57250;BME280;43102;52.014;-0.680;2023-03-23T01:35:00;98685;;;9.60;76.91
57250;BME280;43102;52.014;-0.680;2023-03-23T01:36:02;98685;;;9.60;76.91
57250;BME280;43102;52.014;-0.680;2023-03-23T01:37:00;98685;;;9.60;76.91
57250;BME280;43102;52.014;-0.680;2023-03-23T01:38:00;98691;;;9.59;76.78
57250;BME280;43102;52.014;-0.680;2023-03-23T01:39:00;98691;;;9.59;76.78
57250;BME280;43102;52.014;-0.680;2023-03-23T01:40:00;98691;;;9.59;76.78
57250;BME280;43102;52.014;-0.680;2023-03-23T01:41:00;98691;;;9.59;76.78
57250;BME280;43102;52.014;-0.680;2023-03-23T01:42:00;98691;;;9.59;76.78
57250;BME280;43102;52.014;-0.680;2023-03-23T01:43:00;98697;;;9.57;76.65
57250;BME280;43102;52.014;-0.680;2023-03-23T01:46:00;98697;;;9.57;76.65
57250;BME280;43102;52.014;-0.680;2023-03-23T01:47:00;98697;;;9.57;76.65
57250;BME280;43102;52.014;-0.680;2023-03-23T01:48:03;98690;;;9.49;76.77
57250;BME280;43102;52.014;-0.680;2023-03-23T01:49:03;98690;;;9.49;76.77
57250;BME280;43102;52.014;-0.680;2023-03-23T01:50:00;98690;;;9.49;76.77
57250;BME280;43102;52.014;-0.680;2023-03-23T01:51:02;98690;;;9.49;76.77
57250;BME280;43102;52.014;-0.680;2023-03-23T01:52:02;98690;;;9.49;76.77
57250;BME280;43102;52.014;-0.680;2023-03-23T01:53:00;98700;;;9.54;76.67
57250;BME280;43102;52.014;-0.680;2023-03-23T01:54:01;98700;;;9.54;76.67
57250;BME280;43102;52.014;-0.680;2023-03-23T01:55:00;98700;;;9.54;76.67
57250;BME280;43102;52.014;-0.680;2023-03-23T01:56:00;98700;;;9.54;76.67
57250;BME280;43102;52.014;-0.680;2023-03-23T01:57:03;98700;;;9.54;76.67
57250;BME280;43102;52.014;-0.680;2023-03-23T01:58:00;98698;;;9.49;77.02
57250;BME280;43102;52.014;-0.680;2023-03-23T01:59:00;98698;;;9.49;77.02
57250;BME280;43102;52.014;-0.680;2023-03-23T02:00:02;98698;;;9.49;77.02
57250;BME280;43102;52.014;-0.680;2023-03-23T02:01:02;98698;;;9.49;77.02
57250;BME280;43102;52.014;-0.680;2023-03-23T02:02:00;98698;;;9.49;77.02
57250;BME280;43102;52.014;-0.680;2023-03-23T02:03:00;98704;;;9.43;76.93
57250;BME280;43102;52.014;-0.680;2023-03-23T02:04:00;98704;;;9.43;76.93
57250;BME280;43102;52.014;-0.680;2023-03-23T02:05:01;98704;;;9.43;76.93
57250;BME280;43102;52.014;-0.680;2023-03-23T02:06:00;98704;;;9.43;76.93
57250;BME280;43102;52.014;-0.680;2023-03-23T02:07:00;98704;;;9.43;76.93
57250;BME280;43102;52.014;-0.680;2023-03-23T02:08:00;98706;;;9.41;76.95
57250;BME280;43102;52.014;-0.680;2023-03-23T02:09:00;98706;;;9.41;76.95
57250;BME280;43102;52.014;-0.680;2023-03-23T02:10:00;98706;;;9.41;76.95
57250;BME280;43102;52.014;-0.680;2023-03-23T02:11:00;98706;;;9.41;76.95
57250;BME280;43102;52.014;-0.680;2023-03-23T02:12:00;98706;;;9.41;76.95
57250;BME280;43102;52.014;-0.680;2023-03-23T02:13:00;98710;;;9.38;76.87
57250;BME280;43102;52.014;-0.680;2023-03-23T02:14:00;98710;;;9.38;76.87
57250;BME280;43102;52.014;-0.680;2023-03-23T02:15:00;98710;;;9.38;76.87
57250;BME280;43102;52.014;-0.680;2023-03-23T02:16:04;98710;;;9.38;76.87
57250;BME280;43102;52.014;-0.680;2023-03-23T02:17:09;98710;;;9.38;76.87
57250;BME280;43102;52.014;-0.680;2023-03-23T02:22:03;98714;;;9.40;76.71
57250;BME280;43102;52.014;-0.680;2023-03-23T02:27:01;98715;;;9.34;76.67
57250;BME280;43102;52.014;-0.680;2023-03-23T02:31:05;98713;;;9.25;76.61
57250;BME280;43102;52.014;-0.680;2023-03-23T02:32:10;98713;;;9.25;76.61
57250;BME280;43102;52.014;-0.680;2023-03-23T02:33:11;98719;;;9.21;76.56
57250;BME280;43102;52.014;-0.680;2023-03-23T02:34:00;98719;;;9.21;76.56
57250;BME280;43102;52.014;-0.680;2023-03-23T02:35:00;98719;;;9.21;76.56
57250;BME280;43102;52.014;-0.680;2023-03-23T02:36:03;98719;;;9.21;76.56
57250;BME280;43102;52.014;-0.680;2023-03-23T02:37:01;98719;;;9.21;76.56
57250;BME280;43102;52.014;-0.680;2023-03-23T02:38:01;98717;;;9.15;76.49
57250;BME280;43102;52.014;-0.680;2023-03-23T02:39:04;98717;;;9.15;76.49
57250;BME280;43102;52.014;-0.680;2023-03-23T02:40:02;98717;;;9.15;76.49
57250;BME280;43102;52.014;-0.680;2023-03-23T02:41:00;98717;;;9.15;76.49
57250;BME280;43102;52.014;-0.680;2023-03-23T02:42:02;98717;;;9.15;76.49
57250;BME280;43102;52.014;-0.680;2023-03-23T02:43:00;98708;;;9.17;76.30
57250;BME280;43102;52.014;-0.680;2023-03-23T02:44:01;98708;;;9.17;76.30
57250;BME280;43102;52.014;-0.680;2023-03-23T02:45:02;98708;;;9.17;76.30
57250;BME280;43102;52.014;-0.680;2023-03-23T02:46:00;98708;;;9.17;76.30
57250;BME280;43102;52.014;-0.680;2023-03-23T02:47:00;98708;;;9.17;76.30
57250;BME280;43102;52.014;-0.680;2023-03-23T02:48:00;98714;;;9.16;76.20
57250;BME280;43102;52.014;-0.680;2023-03-23T02:49:00;98714;;;9.16;76.20
57250;BME280;43102;52.014;-0.680;2023-03-23T02:50:00;98714;;;9.16;76.20
57250;BME280;43102;52.014;-0.680;2023-03-23T02:51:00;98714;;;9.16;76.20
57250;BME280;43102;52.014;-0.680;2023-03-23T02:52:02;98714;;;9.16;76.20
57250;BME280;43102;52.014;-0.680;2023-03-23T02:53:00;98716;;;9.11;76.12
57250;BME280;43102;52.014;-0.680;2023-03-23T02:54:00;98716;;;9.11;76.12
57250;BME280;43102;52.014;-0.680;2023-03-23T02:55:00;98716;;;9.11;76.12
57250;BME280;43102;52.014;-0.680;2023-03-23T02:56:00;98716;;;9.11;76.12
57250;BME280;43102;52.014;-0.680;2023-03-23T02:57:00;98716;;;9.11;76.12
57250;BME280;43102;52.014;-0.680;2023-03-23T02:58:00;98728;;;9.13;75.83
57250;BME280;43102;52.014;-0.680;2023-03-23T02:59:00;98728;;;9.13;75.83
57250;BME280;43102;52.014;-0.680;2023-03-23T03:00:00;98728;;;9.13;75.83
57250;BME280;43102;52.014;-0.680;2023-03-23T03:01:12;98728;;;9.13;75.83
57250;BME280;43102;52.014;-0.680;2023-03-23T03:03:00;98739;;;9.09;76.08
57250;BME280;43102;52.014;-0.680;2023-03-23T03:04:01;98739;;;9.09;76.08
57250;BME280;43102;52.014;-0.680;2023-03-23T03:05:04;98739;;;9.09;76.08
57250;BME280;43102;52.014;-0.680;2023-03-23T03:06:07;98739;;;9.09;76.08
57250;BME280;43102;52.014;-0.680;2023-03-23T03:07:11;98739;;;9.09;76.08
57250;BME280;43102;52.014;-0.680;2023-03-23T03:08:02;98743;;;9.10;75.73
57250;BME280;43102;52.014;-0.680;2023-03-23T03:09:12;98743;;;9.10;75.73
57250;BME280;43102;52.014;-0.680;2023-03-23T03:10:03;98743;;;9.10;75.73
57250;BME280;43102;52.014;-0.680;2023-03-23T03:11:05;98743;;;9.10;75.73
57250;BME280;43102;52.014;-0.680;2023-03-23T03:12:04;98743;;;9.10;75.73
57250;BME280;43102;52.014;-0.680;2023-03-23T03:14:02;98749;;;9.09;75.51
57250;BME280;43102;52.014;-0.680;2023-03-23T03:15:05;98749;;;9.09;75.51
57250;BME280;43102;52.014;-0.680;2023-03-23T03:17:01;98749;;;9.09;75.51
57250;BME280;43102;52.014;-0.680;2023-03-23T03:19:05;98750;;;9.08;75.70
57250;BME280;43102;52.014;-0.680;2023-03-23T03:20:02;98750;;;9.08;75.70
57250;BME280;43102;52.014;-0.680;2023-03-23T03:21:03;98750;;;9.08;75.70
57250;BME280;43102;52.014;-0.680;2023-03-23T03:22:00;98750;;;9.08;75.70
57250;BME280;43102;52.014;-0.680;2023-03-23T03:23:00;98751;;;9.04;76.03
57250;BME280;43102;52.014;-0.680;2023-03-23T03:24:01;98751;;;9.04;76.03
57250;BME280;43102;52.014;-0.680;2023-03-23T03:25:00;98751;;;9.04;76.03
57250;BME280;43102;52.014;-0.680;2023-03-23T03:26:00;98751;;;9.04;76.03
57250;BME280;43102;52.014;-0.680;2023-03-23T03:27:00;98751;;;9.04;76.03
57250;BME280;43102;52.014;-0.680;2023-03-23T03:28:00;98757;;;9.04;76.21
57250;BME280;43102;52.014;-0.680;2023-03-23T03:29:00;98757;;;9.04;76.21
57250;BME280;43102;52.014;-0.680;2023-03-23T03:30:01;98757;;;9.04;76.21
57250;BME280;43102;52.014;-0.680;2023-03-23T03:31:01;98757;;;9.04;76.21
57250;BME280;43102;52.014;-0.680;2023-03-23T03:32:00;98757;;;9.04;76.21
57250;BME280;43102;52.014;-0.680;2023-03-23T03:33:00;98759;;;9.02;76.38
57250;BME280;43102;52.014;-0.680;2023-03-23T03:34:00;98759;;;9.02;76.38
57250;BME280;43102;52.014;-0.680;2023-03-23T03:35:00;98759;;;9.02;76.38
57250;BME280;43102;52.014;-0.680;2023-03-23T03:36:01;98759;;;9.02;76.38
57250;BME280;43102;52.014;-0.680;2023-03-23T03:37:00;98759;;;9.02;76.38
57250;BME280;43102;52.014;-0.680;2023-03-23T03:38:08;98757;;;9.01;76.29
57250;BME280;43102;52.014;-0.680;2023-03-23T03:39:02;98757;;;9.01;76.29
57250;BME280;43102;52.014;-0.680;2023-03-23T03:40:00;98757;;;9.01;76.29
57250;BME280;43102;52.014;-0.680;2023-03-23T03:41:00;98757;;;9.01;76.29
57250;BME280;43102;52.014;-0.680;2023-03-23T03:42:00;98757;;;9.01;76.29
57250;BME280;43102;52.014;-0.680;2023-03-23T03:43:00;98765;;;8.98;76.58
57250;BME280;43102;52.014;-0.680;2023-03-23T03:44:00;98765;;;8.98;76.58
57250;BME280;43102;52.014;-0.680;2023-03-23T03:45:00;98765;;;8.98;76.58
57250;BME280;43102;52.014;-0.680;2023-03-23T03:46:00;98765;;;8.98;76.58
57250;BME280;43102;52.014;-0.680;2023-03-23T03:47:00;98765;;;8.98;76.58
57250;BME280;43102;52.014;-0.680;2023-03-23T03:48:00;98767;;;8.99;76.49
57250;BME280;43102;52.014;-0.680;2023-03-23T03:49:01;98767;;;8.99;76.49
57250;BME280;43102;52.014;-0.680;2023-03-23T03:50:00;98767;;;8.99;76.49
57250;BME280;43102;52.014;-0.680;2023-03-23T03:51:00;98767;;;8.99;76.49
57250;BME280;43102;52.014;-0.680;2023-03-23T03:52:00;98767;;;8.99;76.49
57250;BME280;43102;52.014;-0.680;2023-03-23T03:53:00;98768;;;8.95;77.01
57250;BME280;43102;52.014;-0.680;2023-03-23T03:54:00;98768;;;8.95;77.01
57250;BME280;43102;52.014;-0.680;2023-03-23T03:55:00;98768;;;8.95;77.01
57250;BME280;43102;52.014;-0.680;2023-03-23T03:56:00;98768;;;8.95;77.01
57250;BME280;43102;52.014;-0.680;2023-03-23T03:57:00;98768;;;8.95;77.01
57250;BME280;43102;52.014;-0.680;2023-03-23T03:58:01;98773;;;9.05;76.68
57250;BME280;43102;52.014;-0.680;2023-03-23T03:59:00;98773;;;9.05;76.68
57250;BME280;43102;52.014;-0.680;2023-03-23T04:00:00;98773;;;9.05;76.68
57250;BME280;43102;52.014;-0.680;2023-03-23T04:01:00;98773;;;9.05;76.68
57250;BME280;43102;52.014;-0.680;2023-03-23T04:02:00;98773;;;9.05;76.68
57250;BME280;43102;52.014;-0.680;2023-03-23T04:03:00;98780;;;9.10;76.91
57250;BME280;43102;52.014;-0.680;2023-03-23T04:04:00;98780;;;9.10;76.91
57250;BME280;43102;52.014;-0.680;2023-03-23T04:05:00;98780;;;9.10;76.91
57250;BME280;43102;52.014;-0.680;2023-03-23T04:06:00;98780;;;9.10;76.91
57250;BME280;43102;52.014;-0.680;2023-03-23T04:07:00;98780;;;9.10;76.91
57250;BME280;43102;52.014;-0.680;2023-03-23T04:08:00;98788;;;9.11;76.97
57250;BME280;43102;52.014;-0.680;2023-03-23T04:09:00;98788;;;9.11;76.97
57250;BME280;43102;52.014;-0.680;2023-03-23T04:10:00;98788;;;9.11;76.97
57250;BME280;43102;52.014;-0.680;2023-03-23T04:11:00;98788;;;9.11;76.97
57250;BME280;43102;52.014;-0.680;2023-03-23T04:12:00;98788;;;9.11;76.97
57250;BME280;43102;52.014;-0.680;2023-03-23T04:13:00;98788;;;9.11;76.97
57250;BME280;43102;52.014;-0.680;2023-03-23T04:14:00;98788;;;9.11;76.97
57250;BME280;43102;52.014;-0.680;2023-03-23T04:15:00;98788;;;9.11;76.97
57250;BME280;43102;52.014;-0.680;2023-03-23T04:16:00;98788;;;9.11;76.97
57250;BME280;43102;52.014;-0.680;2023-03-23T04:17:00;98788;;;9.11;76.97
57250;BME280;43102;52.014;-0.680;2023-03-23T04:18:00;98790;;;9.05;77.01
57250;BME280;43102;52.014;-0.680;2023-03-23T04:19:00;98790;;;9.05;77.01
57250;BME280;43102;52.014;-0.680;2023-03-23T04:20:00;98790;;;9.05;77.01
57250;BME280;43102;52.014;-0.680;2023-03-23T04:21:01;98790;;;9.05;77.01
57250;BME280;43102;52.014;-0.680;2023-03-23T04:22:00;98790;;;9.05;77.01
57250;BME280;43102;52.014;-0.680;2023-03-23T04:23:00;98792;;;8.98;76.88
57250;BME280;43102;52.014;-0.680;2023-03-23T04:24:00;98792;;;8.98;76.88
57250;BME280;43102;52.014;-0.680;2023-03-23T04:25:00;98792;;;8.98;76.88
57250;BME280;43102;52.014;-0.680;2023-03-23T04:26:00;98792;;;8.98;76.88
57250;BME280;43102;52.014;-0.680;2023-03-23T04:27:00;98792;;;8.98;76.88
57250;BME280;43102;52.014;-0.680;2023-03-23T04:28:00;98796;;;8.96;76.78
57250;BME280;43102;52.014;-0.680;2023-03-23T04:29:00;98796;;;8.96;76.78
57250;BME280;43102;52.014;-0.680;2023-03-23T04:30:00;98796;;;8.96;76.78
57250;BME280;43102;52.014;-0.680;2023-03-23T04:31:00;98796;;;8.96;76.78
57250;BME280;43102;52.014;-0.680;2023-03-23T04:32:00;98796;;;8.96;76.78
57250;BME280;43102;52.014;-0.680;2023-03-23T04:33:00;98807;;;8.90;77.06
57250;BME280;43102;52.014;-0.680;2023-03-23T04:34:00;98807;;;8.90;77.06
57250;BME280;43102;52.014;-0.680;2023-03-23T04:35:00;98807;;;8.90;77.06
57250;BME280;43102;52.014;-0.680;2023-03-23T04:36:00;98807;;;8.90;77.06
57250;BME280;43102;52.014;-0.680;2023-03-23T04:37:00;98807;;;8.90;77.06
57250;BME280;43102;52.014;-0.680;2023-03-23T04:38:00;98804;;;8.83;76.98
57250;BME280;43102;52.014;-0.680;2023-03-23T04:39:00;98804;;;8.83;76.98
57250;BME280;43102;52.014;-0.680;2023-03-23T04:40:00;98804;;;8.83;76.98
57250;BME280;43102;52.014;-0.680;2023-03-23T04:41:00;98804;;;8.83;76.98
57250;BME280;43102;52.014;-0.680;2023-03-23T04:42:00;98804;;;8.83;76.98
57250;BME280;43102;52.014;-0.680;2023-03-23T04:43:00;98802;;;8.86;76.73
57250;BME280;43102;52.014;-0.680;2023-03-23T04:44:00;98802;;;8.86;76.73
57250;BME280;43102;52.014;-0.680;2023-03-23T04:45:00;98802;;;8.86;76.73
57250;BME280;43102;52.014;-0.680;2023-03-23T04:46:00;98802;;;8.86;76.73
57250;BME280;43102;52.014;-0.680;2023-03-23T04:47:00;98802;;;8.86;76.73
57250;BME280;43102;52.014;-0.680;2023-03-23T04:48:00;98810;;;8.78;77.02
57250;BME280;43102;52.014;-0.680;2023-03-23T04:49:00;98810;;;8.78;77.02
57250;BME280;43102;52.014;-0.680;2023-03-23T04:50:00;98810;;;8.78;77.02
57250;BME280;43102;52.014;-0.680;2023-03-23T04:51:01;98810;;;8.78;77.02
57250;BME280;43102;52.014;-0.680;2023-03-23T04:52:00;98810;;;8.78;77.02
57250;BME280;43102;52.014;-0.680;2023-03-23T04:53:01;98807;;;8.80;76.87
57250;BME280;43102;52.014;-0.680;2023-03-23T04:54:00;98807;;;8.80;76.87
57250;BME280;43102;52.014;-0.680;2023-03-23T04:55:00;98807;;;8.80;76.87
57250;BME280;43102;52.014;-0.680;2023-03-23T04:56:00;98807;;;8.80;76.87
57250;BME280;43102;52.014;-0.680;2023-03-23T04:57:00;98807;;;8.80;76.87
57250;BME280;43102;52.014;-0.680;2023-03-23T04:58:00;98818;;;8.78;76.99
57250;BME280;43102;52.014;-0.680;2023-03-23T04:59:00;98818;;;8.78;76.99
57250;BME280;43102;52.014;-0.680;2023-03-23T05:00:00;98818;;;8.78;76.99
57250;BME280;43102;52.014;-0.680;2023-03-23T05:01:00;98818;;;8.78;76.99
57250;BME280;43102;52.014;-0.680;2023-03-23T05:02:00;98818;;;8.78;76.99
57250;BME280;43102;52.014;-0.680;2023-03-23T05:03:00;98819;;;8.73;77.26
57250;BME280;43102;52.014;-0.680;2023-03-23T05:04:00;98819;;;8.73;77.26
57250;BME280;43102;52.014;-0.680;2023-03-23T05:05:00;98819;;;8.73;77.26
57250;BME280;43102;52.014;-0.680;2023-03-23T05:06:02;98819;;;8.73;77.26
57250;BME280;43102;52.014;-0.680;2023-03-23T05:07:00;98819;;;8.73;77.26
57250;BME280;43102;52.014;-0.680;2023-03-23T05:08:00;98817;;;8.73;77.19
57250;BME280;43102;52.014;-0.680;2023-03-23T05:09:00;98817;;;8.73;77.19
57250;BME280;43102;52.014;-0.680;2023-03-23T05:10:00;98817;;;8.73;77.19
57250;BME280;43102;52.014;-0.680;2023-03-23T05:11:00;98817;;;8.73;77.19
57250;BME280;43102;52.014;-0.680;2023-03-23T05:12:04;98817;;;8.73;77.19
57250;BME280;43102;52.014;-0.680;2023-03-23T05:13:00;98819;;;8.72;76.87
57250;BME280;43102;52.014;-0.680;2023-03-23T05:14:00;98819;;;8.72;76.87
57250;BME280;43102;52.014;-0.680;2023-03-23T05:15:00;98819;;;8.72;76.87
57250;BME280;43102;52.014;-0.680;2023-03-23T05:16:04;98819;;;8.72;76.87
57250;BME280;43102;52.014;-0.680;2023-03-23T05:17:00;98819;;;8.72;76.87
57250;BME280;43102;52.014;-0.680;2023-03-23T05:18:00;98814;;;8.73;76.87
57250;BME280;43102;52.014;-0.680;2023-03-23T05:19:00;98814;;;8.73;76.87
57250;BME280;43102;52.014;-0.680;2023-03-23T05:20:00;98814;;;8.73;76.87
57250;BME280;43102;52.014;-0.680;2023-03-23T05:21:00;98814;;;8.73;76.87
57250;BME280;43102;52.014;-0.680;2023-03-23T05:22:00;98814;;;8.73;76.87
57250;BME280;43102;52.014;-0.680;2023-03-23T05:23:00;98828;;;8.67;77.07
57250;BME280;43102;52.014;-0.680;2023-03-23T05:24:00;98828;;;8.67;77.07
57250;BME280;43102;52.014;-0.680;2023-03-23T05:25:00;98828;;;8.67;77.07
57250;BME280;43102;52.014;-0.680;2023-03-23T05:26:00;98828;;;8.67;77.07
57250;BME280;43102;52.014;-0.680;2023-03-23T05:27:00;98828;;;8.67;77.07
57250;BME280;43102;52.014;-0.680;2023-03-23T05:28:00;98821;;;8.66;77.15
57250;BME280;43102;52.014;-0.680;2023-03-23T05:29:00;98821;;;8.66;77.15
57250;BME280;43102;52.014;-0.680;2023-03-23T05:30:00;98821;;;8.66;77.15
57250;BME280;43102;52.014;-0.680;2023-03-23T05:31:00;98821;;;8.66;77.15
57250;BME280;43102;52.014;-0.680;2023-03-23T05:32:00;98821;;;8.66;77.15
57250;BME280;43102;52.014;-0.680;2023-03-23T05:33:00;98822;;;8.65;77.09
57250;BME280;43102;52.014;-0.680;2023-03-23T05:34:00;98822;;;8.65;77.09
57250;BME280;43102;52.014;-0.680;2023-03-23T05:35:00;98822;;;8.65;77.09
57250;BME280;43102;52.014;-0.680;2023-03-23T05:36:00;98822;;;8.65;77.09
57250;BME280;43102;52.014;-0.680;2023-03-23T05:37:00;98822;;;8.65;77.09
57250;BME280;43102;52.014;-0.680;2023-03-23T05:38:00;98815;;;8.64;76.84
57250;BME280;43102;52.014;-0.680;2023-03-23T05:39:00;98815;;;8.64;76.84
57250;BME280;43102;52.014;-0.680;2023-03-23T05:40:00;98815;;;8.64;76.84
57250;BME280;43102;52.014;-0.680;2023-03-23T05:41:00;98815;;;8.64;76.84
57250;BME280;43102;52.014;-0.680;2023-03-23T05:42:00;98815;;;8.64;76.84
57250;BME280;43102;52.014;-0.680;2023-03-23T05:43:00;98821;;;8.62;76.82
57250;BME280;43102;52.014;-0.680;2023-03-23T05:44:00;98821;;;8.62;76.82
57250;BME280;43102;52.014;-0.680;2023-03-23T05:45:01;98821;;;8.62;76.82
57250;BME280;43102;52.014;-0.680;2023-03-23T05:46:00;98821;;;8.62;76.82
57250;BME280;43102;52.014;-0.680;2023-03-23T05:47:00;98821;;;8.62;76.82